sensor_id;sensor_type;location;lat;lon;timestamp;pressure;altitude;pressure_sealevel;temperature;humidity
23433;BME280;41331;45.412;10.992;2023-02-10T00:01:25;102999.75;;;-0.70;70.37
23433;BME280;41331;45.412;10.992;2023-02-10T00:03:53;103009.22;;;-0.67;70.45
23433;BME280;41331;45.412;10.992;2023-02-10T00:06:22;103009.28;;;-0.82;70.35
23433;BME280;41331;45.412;10.992;2023-02-10T00:08:55;103004.78;;;-0.96;71.18
23433;BME280;41331;45.412;10.992;2023-02-10T00:11:24;103008.66;;;-0.84;72.10
23433;BME280;41331;45.412;10.992;2023-02-10T00:14:12;103006.03;;;-0.77;71.80
23433;BME280;41331;45.412;10.992;2023-02-10T00:16:40;103003.94;;;-0.82;71.02
23433;BME280;41331;45.412;10.992;2023-02-10T00:19:07;103001.25;;;-0.82;71.07
23433;BME280;41331;45.412;10.992;2023-02-10T00:21:34;103000.38;;;-0.89;72.30
23433;BME280;41331;45.412;10.992;2023-02-10T00:24:02;103002.53;;;-0.99;71.94
23433;BME280;41331;45.412;10.992;2023-02-10T00:26:30;102996.91;;;-1.05;72.27
23433;BME280;41331;45.412;10.992;2023-02-10T00:28:57;102995.84;;;-0.89;71.82
23433;BME280;41331;45.412;10.992;2023-02-10T00:31:25;102995.19;;;-0.91;73.18
23433;BME280;41331;45.412;10.992;2023-02-10T00:33:52;103000.28;;;-0.96;72.77
23433;BME280;41331;45.412;10.992;2023-02-10T00:36:20;102998.22;;;-0.79;71.30
23433;BME280;41331;45.412;10.992;2023-02-10T00:38:51;102997.91;;;-0.48;70.18
23433;BME280;41331;45.412;10.992;2023-02-10T00:41:21;102989.91;;;-0.41;68.86
23433;BME280;41331;45.412;10.992;2023-02-10T00:43:49;102993.81;;;-0.44;68.93
23433;BME280;41331;45.412;10.992;2023-02-10T00:46:18;102989.25;;;-0.50;70.72
23433;BME280;41331;45.412;10.992;2023-02-10T00:48:47;102986.31;;;-0.55;70.44
23433;BME280;41331;45.412;10.992;2023-02-10T00:51:16;102988.41;;;-0.72;70.52
23433;BME280;41331;45.412;10.992;2023-02-10T00:53:44;102988.44;;;-0.87;70.90
23433;BME280;41331;45.412;10.992;2023-02-10T00:56:11;102993.28;;;-0.97;71.19
23433;BME280;41331;45.412;10.992;2023-02-10T00:58:39;102992.78;;;-0.86;71.98
23433;BME280;41331;45.412;10.992;2023-02-10T01:01:08;102992.03;;;-0.80;72.55
23433;BME280;41331;45.412;10.992;2023-02-10T01:03:37;102990.25;;;-0.94;72.62
23433;BME280;41331;45.412;10.992;2023-02-10T01:06:05;102982.13;;;-1.00;72.22
23433;BME280;41331;45.412;10.992;2023-02-10T01:08:34;102980.78;;;-1.11;72.84
23433;BME280;41331;45.412;10.992;2023-02-10T01:11:04;102974.69;;;-1.05;73.18
23433;BME280;41331;45.412;10.992;2023-02-10T01:13:32;102968.59;;;-0.99;73.07
23433;BME280;41331;45.412;10.992;2023-02-10T01:16:04;102969.34;;;-1.05;72.06
23433;BME280;41331;45.412;10.992;2023-02-10T01:18:31;102970.47;;;-1.14;73.52
23433;BME280;41331;45.412;10.992;2023-02-10T01:21:14;102971.75;;;-1.10;72.46
23433;BME280;41331;45.412;10.992;2023-02-10T01:23:43;102974.06;;;-1.22;72.83
23433;BME280;41331;45.412;10.992;2023-02-10T01:26:10;102964.03;;;-1.20;74.30
23433;BME280;41331;45.412;10.992;2023-02-10T01:28:39;102968.81;;;-1.15;73.11
23433;BME280;41331;45.412;10.992;2023-02-10T01:31:09;102965.69;;;-1.19;73.66
23433;BME280;41331;45.412;10.992;2023-02-10T01:33:37;102962.25;;;-1.13;73.80
23433;BME280;41331;45.412;10.992;2023-02-10T01:36:06;102963.84;;;-1.18;74.46
23433;BME280;41331;45.412;10.992;2023-02-10T01:38:37;102966.44;;;-1.25;74.97
23433;BME280;41331;45.412;10.992;2023-02-10T01:41:05;102958.81;;;-1.28;75.23
23433;BME280;41331;45.412;10.992;2023-02-10T01:43:54;102960.88;;;-1.45;76.52
23433;BME280;41331;45.412;10.992;2023-02-10T01:46:22;102956.16;;;-1.43;77.23
23433;BME280;41331;45.412;10.992;2023-02-10T01:48:56;102958.47;;;-1.40;77.17
23433;BME280;41331;45.412;10.992;2023-02-10T01:51:56;102952.63;;;-1.28;75.99
23433;BME280;41331;45.412;10.992;2023-02-10T01:54:27;102945.81;;;-1.46;77.28
23433;BME280;41331;45.412;10.992;2023-02-10T01:56:58;102937.28;;;-1.56;78.71
23433;BME280;41331;45.412;10.992;2023-02-10T01:59:30;102935.47;;;-1.55;78.97
23433;BME280;41331;45.412;10.992;2023-02-10T02:01:59;102926.88;;;-1.51;78.87
23433;BME280;41331;45.412;10.992;2023-02-10T02:04:41;102929.19;;;-1.48;78.02
23433;BME280;41331;45.412;10.992;2023-02-10T02:07:11;102923.38;;;-1.66;78.36
23433;BME280;41331;45.412;10.992;2023-02-10T02:09:39;102920.66;;;-1.73;79.53
23433;BME280;41331;45.412;10.992;2023-02-10T02:12:36;102912.00;;;-1.90;79.89
23433;BME280;41331;45.412;10.992;2023-02-10T02:15:16;102914.97;;;-1.85;80.86
23433;BME280;41331;45.412;10.992;2023-02-10T02:18:18;102918.16;;;-1.74;79.88
23433;BME280;41331;45.412;10.992;2023-02-10T02:21:07;102912.53;;;-1.65;79.89
23433;BME280;41331;45.412;10.992;2023-02-10T02:32:36;102907.56;;;-1.68;78.98
23433;BME280;41331;45.412;10.992;2023-02-10T02:35:12;102904.13;;;-1.62;79.27
23433;BME280;41331;45.412;10.992;2023-02-10T02:37:46;102898.25;;;-1.57;79.67
23433;BME280;41331;45.412;10.992;2023-02-10T02:40:16;102899.88;;;-1.56;80.33
23433;BME280;41331;45.412;10.992;2023-02-10T02:42:44;102895.22;;;-1.54;79.40
23433;BME280;41331;45.412;10.992;2023-02-10T02:45:21;102896.22;;;-1.55;79.38
23433;BME280;41331;45.412;10.992;2023-02-10T03:01:32;102902.28;;;-1.61;78.96
23433;BME280;41331;45.412;10.992;2023-02-10T03:04:01;102897.97;;;-1.62;78.50
23433;BME280;41331;45.412;10.992;2023-02-10T03:06:32;102889.31;;;-1.49;78.19
23433;BME280;41331;45.412;10.992;2023-02-10T03:09:00;102893.88;;;-1.43;78.73
23433;BME280;41331;45.412;10.992;2023-02-10T03:11:28;102895.56;;;-1.57;78.14
23433;BME280;41331;45.412;10.992;2023-02-10T03:13:55;102893.28;;;-1.60;77.93
23433;BME280;41331;45.412;10.992;2023-02-10T03:16:22;102895.06;;;-1.82;79.52
23433;BME280;41331;45.412;10.992;2023-02-10T03:18:50;102887.16;;;-2.05;80.04
23433;BME280;41331;45.412;10.992;2023-02-10T03:21:19;102890.66;;;-2.04;80.48
23433;BME280;41331;45.412;10.992;2023-02-10T03:23:47;102886.78;;;-2.02;80.88
23433;BME280;41331;45.412;10.992;2023-02-10T03:26:14;102882.09;;;-2.00;79.96
23433;BME280;41331;45.412;10.992;2023-02-10T03:28:41;102878.69;;;-1.94;79.56
23433;BME280;41331;45.412;10.992;2023-02-10T03:31:09;102878.34;;;-1.91;79.15
23433;BME280;41331;45.412;10.992;2023-02-10T03:33:36;102873.63;;;-1.89;79.83
23433;BME280;41331;45.412;10.992;2023-02-10T03:36:04;102878.41;;;-1.84;79.17
23433;BME280;41331;45.412;10.992;2023-02-10T03:38:31;102885.94;;;-1.88;79.50
23433;BME280;41331;45.412;10.992;2023-02-10T03:41:00;102885.31;;;-1.90;81.28
23433;BME280;41331;45.412;10.992;2023-02-10T03:43:27;102888.81;;;-1.89;81.12
23433;BME280;41331;45.412;10.992;2023-02-10T03:45:55;102883.94;;;-1.86;79.77
23433;BME280;41331;45.412;10.992;2023-02-10T03:48:22;102890.53;;;-1.82;79.51
23433;BME280;41331;45.412;10.992;2023-02-10T03:50:53;102887.97;;;-1.75;79.15
23433;BME280;41331;45.412;10.992;2023-02-10T03:53:21;102895.72;;;-1.80;78.68
23433;BME280;41331;45.412;10.992;2023-02-10T03:55:48;102896.06;;;-1.83;78.95
23433;BME280;41331;45.412;10.992;2023-02-10T03:58:16;102898.66;;;-1.90;78.56
23433;BME280;41331;45.412;10.992;2023-02-10T04:00:43;102896.91;;;-1.97;79.63
23433;BME280;41331;45.412;10.992;2023-02-10T04:03:11;102899.28;;;-1.88;78.75
23433;BME280;41331;45.412;10.992;2023-02-10T04:05:38;102893.22;;;-1.96;79.33
23433;BME280;41331;45.412;10.992;2023-02-10T04:08:06;102892.78;;;-2.00;78.83
23433;BME280;41331;45.412;10.992;2023-02-10T04:10:35;102890.81;;;-1.91;78.95
23433;BME280;41331;45.412;10.992;2023-02-10T04:13:03;102889.84;;;-2.05;79.25
23433;BME280;41331;45.412;10.992;2023-02-10T04:15:30;102889.56;;;-2.10;79.35
23433;BME280;41331;45.412;10.992;2023-02-10T04:17:57;102888.47;;;-2.16;79.48
23433;BME280;41331;45.412;10.992;2023-02-10T04:20:25;102894.88;;;-2.25;80.72
23433;BME280;41331;45.412;10.992;2023-02-10T04:22:52;102898.00;;;-2.21;80.38
23433;BME280;41331;45.412;10.992;2023-02-10T04:25:20;102894.06;;;-2.25;80.60
23433;BME280;41331;45.412;10.992;2023-02-10T04:27:48;102905.72;;;-2.26;82.15
23433;BME280;41331;45.412;10.992;2023-02-10T04:30:16;102904.81;;;-2.33;81.80
23433;BME280;41331;45.412;10.992;2023-02-10T04:32:43;102896.88;;;-2.42;82.58
23433;BME280;41331;45.412;10.992;2023-02-10T04:35:11;102905.41;;;-2.46;83.34
23433;BME280;41331;45.412;10.992;2023-02-10T04:37:38;102898.09;;;-2.44;83.51
23433;BME280;41331;45.412;10.992;2023-02-10T04:40:06;102895.22;;;-2.43;83.72
23433;BME280;41331;45.412;10.992;2023-02-10T04:42:33;102894.13;;;-2.33;82.48
23433;BME280;41331;45.412;10.992;2023-02-10T04:45:00;102886.13;;;-2.33;83.94
23433;BME280;41331;45.412;10.992;2023-02-10T04:47:28;102885.69;;;-2.22;84.19
23433;BME280;41331;45.412;10.992;2023-02-10T04:49:55;102891.28;;;-2.17;83.98
23433;BME280;41331;45.412;10.992;2023-02-10T04:52:23;102893.13;;;-2.18;83.65
23433;BME280;41331;45.412;10.992;2023-02-10T04:54:50;102890.09;;;-2.15;83.36
23433;BME280;41331;45.412;10.992;2023-02-10T04:57:18;102898.00;;;-2.06;83.22
23433;BME280;41331;45.412;10.992;2023-02-10T04:59:45;102891.56;;;-2.12;83.99
23433;BME280;41331;45.412;10.992;2023-02-10T05:02:12;102889.63;;;-2.03;83.86
23433;BME280;41331;45.412;10.992;2023-02-10T05:04:40;102899.50;;;-2.04;83.45
23433;BME280;41331;45.412;10.992;2023-02-10T05:07:11;102894.72;;;-2.09;83.22
23433;BME280;41331;45.412;10.992;2023-02-10T05:09:38;102898.00;;;-2.21;83.67
23433;BME280;41331;45.412;10.992;2023-02-10T05:12:06;102895.91;;;-2.26;84.13
23433;BME280;41331;45.412;10.992;2023-02-10T05:14:33;102909.25;;;-2.26;84.46
23433;BME280;41331;45.412;10.992;2023-02-10T05:17:00;102910.50;;;-2.37;85.23
23433;BME280;41331;45.412;10.992;2023-02-10T05:19:28;102919.47;;;-2.52;85.65
23433;BME280;41331;45.412;10.992;2023-02-10T05:21:58;102923.78;;;-2.51;85.72
23433;BME280;41331;45.412;10.992;2023-02-10T05:24:25;102918.91;;;-2.63;86.08
23433;BME280;41331;45.412;10.992;2023-02-10T05:26:53;102921.81;;;-2.72;87.59
23433;BME280;41331;45.412;10.992;2023-02-10T05:29:20;102914.09;;;-2.67;87.29
23433;BME280;41331;45.412;10.992;2023-02-10T05:31:48;102916.09;;;-2.46;85.54
23433;BME280;41331;45.412;10.992;2023-02-10T05:34:15;102917.56;;;-2.44;86.35
23433;BME280;41331;45.412;10.992;2023-02-10T05:36:42;102921.34;;;-2.38;85.59
23433;BME280;41331;45.412;10.992;2023-02-10T05:39:11;102927.84;;;-2.55;86.75
23433;BME280;41331;45.412;10.992;2023-02-10T05:41:54;102925.34;;;-2.57;87.09
23433;BME280;41331;45.412;10.992;2023-02-10T05:44:24;102926.56;;;-2.59;87.11
23433;BME280;41331;45.412;10.992;2023-02-10T05:46:52;102934.25;;;-2.65;86.39
23433;BME280;41331;45.412;10.992;2023-02-10T05:49:19;102936.16;;;-2.73;86.58
23433;BME280;41331;45.412;10.992;2023-02-10T05:51:47;102937.59;;;-2.85;87.98
23433;BME280;41331;45.412;10.992;2023-02-10T05:54:17;102942.63;;;-2.91;88.72
23433;BME280;41331;45.412;10.992;2023-02-10T05:56:45;102942.78;;;-2.92;89.32
23433;BME280;41331;45.412;10.992;2023-02-10T05:59:13;102937.59;;;-2.85;88.82
23433;BME280;41331;45.412;10.992;2023-02-10T06:01:42;102942.56;;;-2.82;88.50
23433;BME280;41331;45.412;10.992;2023-02-10T06:04:10;102953.06;;;-2.81;89.19
23433;BME280;41331;45.412;10.992;2023-02-10T06:06:37;102959.16;;;-2.95;88.94
23433;BME280;41331;45.412;10.992;2023-02-10T06:09:05;102954.34;;;-3.00;88.67
23433;BME280;41331;45.412;10.992;2023-02-10T06:11:35;102950.56;;;-3.05;88.64
23433;BME280;41331;45.412;10.992;2023-02-10T06:14:02;102962.16;;;-2.98;88.61
23433;BME280;41331;45.412;10.992;2023-02-10T06:16:30;102965.53;;;-3.04;85.25
23433;BME280;41331;45.412;10.992;2023-02-10T06:18:57;102973.72;;;-3.06;85.01
23433;BME280;41331;45.412;10.992;2023-02-10T06:21:25;102986.66;;;-3.03;84.60
23433;BME280;41331;45.412;10.992;2023-02-10T06:23:52;102994.25;;;-2.92;84.56
23433;BME280;41331;45.412;10.992;2023-02-10T06:26:20;102996.34;;;-2.79;84.55
23433;BME280;41331;45.412;10.992;2023-02-10T06:28:48;102999.50;;;-2.75;84.92
23433;BME280;41331;45.412;10.992;2023-02-10T06:31:15;103007.38;;;-2.59;84.21
23433;BME280;41331;45.412;10.992;2023-02-10T06:33:43;102998.66;;;-2.53;83.01
23433;BME280;41331;45.412;10.992;2023-02-10T06:36:10;103004.38;;;-2.41;83.36
23433;BME280;41331;45.412;10.992;2023-02-10T06:38:38;103010.50;;;-2.32;82.01
23433;BME280;41331;45.412;10.992;2023-02-10T06:41:05;103021.59;;;-2.44;81.92
23433;BME280;41331;45.412;10.992;2023-02-10T06:43:33;103025.38;;;-2.38;82.18
23433;BME280;41331;45.412;10.992;2023-02-10T06:46:03;103027.84;;;-2.37;80.98
23433;BME280;41331;45.412;10.992;2023-02-10T06:48:31;103023.78;;;-2.24;80.13
23433;BME280;41331;45.412;10.992;2023-02-10T06:50:59;103029.09;;;-2.24;79.82
23433;BME280;41331;45.412;10.992;2023-02-10T06:53:27;103042.97;;;-2.29;79.83
23433;BME280;41331;45.412;10.992;2023-02-10T06:55:57;103039.63;;;-1.55;77.88
23433;BME280;41331;45.412;10.992;2023-02-10T06:58:25;103039.31;;;-0.65;72.77
23433;BME280;41331;45.412;10.992;2023-02-10T07:00:52;103032.53;;;-0.18;70.70
23433;BME280;41331;45.412;10.992;2023-02-10T07:03:20;103027.44;;;-0.13;69.60
23433;BME280;41331;45.412;10.992;2023-02-10T07:05:47;103035.13;;;-0.04;67.76
23433;BME280;41331;45.412;10.992;2023-02-10T07:08:15;103041.75;;;0.01;67.14
23433;BME280;41331;45.412;10.992;2023-02-10T07:10:45;103034.47;;;0.50;64.53
23433;BME280;41331;45.412;10.992;2023-02-10T07:13:13;103035.75;;;0.61;64.98
23433;BME280;41331;45.412;10.992;2023-02-10T07:15:41;103032.19;;;0.54;65.28
23433;BME280;41331;45.412;10.992;2023-02-10T07:18:09;103043.72;;;0.48;64.92
23433;BME280;41331;45.412;10.992;2023-02-10T07:20:36;103054.00;;;0.44;65.44
23433;BME280;41331;45.412;10.992;2023-02-10T07:23:03;103053.84;;;0.52;64.96
23433;BME280;41331;45.412;10.992;2023-02-10T07:25:31;103046.94;;;0.71;64.46
23433;BME280;41331;45.412;10.992;2023-02-10T07:27:59;103046.59;;;0.88;64.67
23433;BME280;41331;45.412;10.992;2023-02-10T07:30:26;103045.53;;;1.50;62.25
23433;BME280;41331;45.412;10.992;2023-02-10T07:32:53;103045.75;;;1.48;61.32
23433;BME280;41331;45.412;10.992;2023-02-10T07:35:21;103059.66;;;1.04;62.93
23433;BME280;41331;45.412;10.992;2023-02-10T07:37:49;103068.59;;;1.24;63.54
23433;BME280;41331;45.412;10.992;2023-02-10T07:40:17;103067.06;;;1.57;62.86
23433;BME280;41331;45.412;10.992;2023-02-10T07:42:44;103061.28;;;1.73;61.14
23433;BME280;41331;45.412;10.992;2023-02-10T07:45:24;103063.34;;;2.24;59.67
23433;BME280;41331;45.412;10.992;2023-02-10T07:47:53;103076.72;;;2.77;58.81
23433;BME280;41331;45.412;10.992;2023-02-10T07:50:20;103075.25;;;3.64;54.65
23433;BME280;41331;45.412;10.992;2023-02-10T07:52:48;103071.09;;;3.68;52.30
23433;BME280;41331;45.412;10.992;2023-02-10T07:55:16;103070.16;;;4.06;51.84
23433;BME280;41331;45.412;10.992;2023-02-10T07:57:43;103093.34;;;4.13;51.98
23433;BME280;41331;45.412;10.992;2023-02-10T08:00:11;103084.19;;;4.76;49.96
23433;BME280;41331;45.412;10.992;2023-02-10T08:02:42;103073.63;;;5.41;47.52
23433;BME280;41331;45.412;10.992;2023-02-10T08:05:09;103079.00;;;5.71;46.01
23433;BME280;41331;45.412;10.992;2023-02-10T08:07:37;103078.88;;;5.66;45.73
23433;BME280;41331;45.412;10.992;2023-02-10T08:10:05;103072.09;;;6.29;44.04
23433;BME280;41331;45.412;10.992;2023-02-10T08:12:32;103069.50;;;6.58;42.72
23433;BME280;41331;45.412;10.992;2023-02-10T08:14:59;103073.94;;;5.93;44.17
23433;BME280;41331;45.412;10.992;2023-02-10T08:17:28;103075.97;;;5.38;45.47
23433;BME280;41331;45.412;10.992;2023-02-10T08:19:55;103071.13;;;5.58;46.00
23433;BME280;41331;45.412;10.992;2023-02-10T08:22:22;103077.22;;;5.95;45.40
23433;BME280;41331;45.412;10.992;2023-02-10T08:24:50;103073.72;;;6.54;44.79
23433;BME280;41331;45.412;10.992;2023-02-10T08:27:17;103075.38;;;6.55;43.86
23433;BME280;41331;45.412;10.992;2023-02-10T08:29:45;103082.47;;;6.96;43.67
23433;BME280;41331;45.412;10.992;2023-02-10T08:32:12;103094.41;;;7.23;42.14
23433;BME280;41331;45.412;10.992;2023-02-10T08:34:46;103082.97;;;8.46;40.49
23433;BME280;41331;45.412;10.992;2023-02-10T08:37:16;103086.16;;;9.52;37.69
23433;BME280;41331;45.412;10.992;2023-02-10T08:39:44;103075.00;;;10.50;35.62
23433;BME280;41331;45.412;10.992;2023-02-10T08:42:11;103080.09;;;10.36;35.32
23433;BME280;41331;45.412;10.992;2023-02-10T08:44:39;103086.91;;;10.39;34.91
23433;BME280;41331;45.412;10.992;2023-02-10T08:47:06;103080.69;;;11.01;34.24
23433;BME280;41331;45.412;10.992;2023-02-10T08:49:35;103083.84;;;11.56;32.81
23433;BME280;41331;45.412;10.992;2023-02-10T08:52:03;103079.78;;;11.89;32.21
23433;BME280;41331;45.412;10.992;2023-02-10T08:54:31;103081.31;;;11.24;32.96
23433;BME280;41331;45.412;10.992;2023-02-10T08:56:58;103089.84;;;10.75;33.83
23433;BME280;41331;45.412;10.992;2023-02-10T08:59:26;103087.69;;;10.82;32.96
23433;BME280;41331;45.412;10.992;2023-02-10T09:01:54;103097.56;;;10.98;33.19
23433;BME280;41331;45.412;10.992;2023-02-10T09:04:21;103095.13;;;11.02;32.70
23433;BME280;41331;45.412;10.992;2023-02-10T09:06:49;103096.69;;;11.76;31.23
23433;BME280;41331;45.412;10.992;2023-02-10T09:09:19;103091.53;;;11.89;29.21
23433;BME280;41331;45.412;10.992;2023-02-10T09:11:50;103094.22;;;12.51;29.67
23433;BME280;41331;45.412;10.992;2023-02-10T09:14:17;103097.47;;;12.58;29.15
23433;BME280;41331;45.412;10.992;2023-02-10T09:16:45;103096.34;;;13.39;27.81
23433;BME280;41331;45.412;10.992;2023-02-10T09:19:14;103104.25;;;12.81;28.23
23433;BME280;41331;45.412;10.992;2023-02-10T09:21:41;103111.69;;;12.39;28.55
23433;BME280;41331;45.412;10.992;2023-02-10T09:24:14;103110.28;;;12.73;28.58
23433;BME280;41331;45.412;10.992;2023-02-10T09:26:45;103115.28;;;13.69;27.17
23433;BME280;41331;45.412;10.992;2023-02-10T09:29:13;103118.56;;;13.71;27.19
23433;BME280;41331;45.412;10.992;2023-02-10T09:31:40;103124.56;;;13.73;26.44
23433;BME280;41331;45.412;10.992;2023-02-10T09:34:08;103113.81;;;14.45;25.67
23433;BME280;41331;45.412;10.992;2023-02-10T09:36:36;103113.53;;;14.18;26.31
23433;BME280;41331;45.412;10.992;2023-02-10T09:39:03;103122.56;;;14.18;26.07
23433;BME280;41331;45.412;10.992;2023-02-10T10:00:34;103129.47;;;12.42;27.95
23433;BME280;41331;45.412;10.992;2023-02-10T10:03:05;103123.75;;;12.03;27.40
23433;BME280;41331;45.412;10.992;2023-02-10T10:05:42;103123.22;;;12.16;28.18
23433;BME280;41331;45.412;10.992;2023-02-10T10:11:15;103118.06;;;11.11;31.03
23433;BME280;41331;45.412;10.992;2023-02-10T10:13:46;103123.25;;;11.12;30.81
23433;BME280;41331;45.412;10.992;2023-02-10T10:16:42;103124.53;;;10.47;31.85
23433;BME280;41331;45.412;10.992;2023-02-10T10:19:44;103117.81;;;11.12;30.07
23433;BME280;41331;45.412;10.992;2023-02-10T10:25:27;103135.00;;;9.96;31.20
23433;BME280;41331;45.412;10.992;2023-02-10T10:31:06;103136.81;;;9.37;30.89
23433;BME280;41331;45.412;10.992;2023-02-10T10:33:50;103128.28;;;9.28;31.83
23433;BME280;41331;45.412;10.992;2023-02-10T10:36:20;103130.53;;;9.09;32.70
23433;BME280;41331;45.412;10.992;2023-02-10T10:38:58;103126.09;;;9.03;33.78
23433;BME280;41331;45.412;10.992;2023-02-10T10:41:30;103125.22;;;9.19;32.72
23433;BME280;41331;45.412;10.992;2023-02-10T10:43:59;103125.63;;;9.33;32.58
23433;BME280;41331;45.412;10.992;2023-02-10T10:46:40;103117.66;;;10.07;31.00
23433;BME280;41331;45.412;10.992;2023-02-10T10:49:10;103117.81;;;9.37;32.57
23433;BME280;41331;45.412;10.992;2023-02-10T10:51:38;103111.06;;;8.95;33.67
23433;BME280;41331;45.412;10.992;2023-02-10T10:54:14;103101.50;;;8.93;33.50
23433;BME280;41331;45.412;10.992;2023-02-10T10:56:56;103100.78;;;8.59;34.60
23433;BME280;41331;45.412;10.992;2023-02-10T10:59:30;103096.47;;;9.01;32.70
23433;BME280;41331;45.412;10.992;2023-02-10T11:02:11;103096.41;;;8.57;33.80
23433;BME280;41331;45.412;10.992;2023-02-10T11:04:39;103093.22;;;8.61;34.03
23433;BME280;41331;45.412;10.992;2023-02-10T11:07:11;103098.00;;;8.53;34.13
23433;BME280;41331;45.412;10.992;2023-02-10T11:09:47;103082.38;;;8.82;33.27
23433;BME280;41331;45.412;10.992;2023-02-10T11:12:21;103081.75;;;8.75;34.08
23433;BME280;41331;45.412;10.992;2023-02-10T11:14:50;103093.06;;;8.89;34.56
23433;BME280;41331;45.412;10.992;2023-02-10T11:17:36;103080.19;;;8.63;33.22
23433;BME280;41331;45.412;10.992;2023-02-10T11:22:42;103075.63;;;8.85;33.47
23433;BME280;41331;45.412;10.992;2023-02-10T11:25:34;103080.50;;;8.44;34.86
23433;BME280;41331;45.412;10.992;2023-02-10T11:28:05;103074.66;;;8.19;34.18
23433;BME280;41331;45.412;10.992;2023-02-10T11:30:35;103070.34;;;8.56;34.20
23433;BME280;41331;45.412;10.992;2023-02-10T11:33:05;103064.72;;;8.63;33.87
23433;BME280;41331;45.412;10.992;2023-02-10T11:35:33;103068.22;;;9.02;33.32
23433;BME280;41331;45.412;10.992;2023-02-10T11:38:07;103061.84;;;8.70;33.87
23433;BME280;41331;45.412;10.992;2023-02-10T11:40:50;103063.16;;;8.67;34.23
23433;BME280;41331;45.412;10.992;2023-02-10T11:43:26;103062.88;;;8.86;34.14
23433;BME280;41331;45.412;10.992;2023-02-10T11:46:05;103057.38;;;8.80;33.80
23433;BME280;41331;45.412;10.992;2023-02-10T11:48:36;103056.72;;;8.51;33.52
23433;BME280;41331;45.412;10.992;2023-02-10T11:51:12;103054.00;;;8.51;34.06
23433;BME280;41331;45.412;10.992;2023-02-10T11:53:42;103053.91;;;8.46;35.01
23433;BME280;41331;45.412;10.992;2023-02-10T11:59:03;103053.09;;;8.46;34.43
23433;BME280;41331;45.412;10.992;2023-02-10T12:01:54;103041.75;;;8.93;33.72
23433;BME280;41331;45.412;10.992;2023-02-10T12:09:56;103029.91;;;9.26;33.47
23433;BME280;41331;45.412;10.992;2023-02-10T12:13:00;103020.41;;;9.28;32.91
23433;BME280;41331;45.412;10.992;2023-02-10T12:23:56;103015.13;;;9.44;32.67
23433;BME280;41331;45.412;10.992;2023-02-10T12:26:34;103012.41;;;9.44;32.94
23433;BME280;41331;45.412;10.992;2023-02-10T12:32:16;103001.63;;;9.54;32.48
23433;BME280;41331;45.412;10.992;2023-02-10T12:35:02;102996.72;;;9.51;31.32
23433;BME280;41331;45.412;10.992;2023-02-10T12:45:42;102974.16;;;9.50;32.18
23433;BME280;41331;45.412;10.992;2023-02-10T12:51:51;102978.19;;;9.48;31.99
23433;BME280;41331;45.412;10.992;2023-02-10T12:59:56;102969.53;;;10.25;30.77
23433;BME280;41331;45.412;10.992;2023-02-10T13:05:09;102965.63;;;9.42;31.07
23433;BME280;41331;45.412;10.992;2023-02-10T13:07:51;102962.91;;;9.42;31.72
23433;BME280;41331;45.412;10.992;2023-02-10T13:13:27;102965.28;;;9.33;31.13
23433;BME280;41331;45.412;10.992;2023-02-10T13:16:18;102967.13;;;9.27;31.40
23433;BME280;41331;45.412;10.992;2023-02-10T13:21:34;102957.91;;;9.60;32.12
23433;BME280;41331;45.412;10.992;2023-02-10T13:25:11;102959.97;;;9.80;30.99
23433;BME280;41331;45.412;10.992;2023-02-10T13:27:25;102955.03;;;9.77;31.31
23433;BME280;41331;45.412;10.992;2023-02-10T13:32:41;102956.78;;;9.56;32.45
23433;BME280;41331;45.412;10.992;2023-02-10T13:35:15;102959.03;;;9.65;32.00
23433;BME280;41331;45.412;10.992;2023-02-10T13:37:44;102956.75;;;9.51;32.49
23433;BME280;41331;45.412;10.992;2023-02-10T13:40:21;102949.00;;;9.38;31.63
23433;BME280;41331;45.412;10.992;2023-02-10T13:42:59;102945.75;;;9.36;31.97
23433;BME280;41331;45.412;10.992;2023-02-10T13:45:28;102949.25;;;9.31;32.71
23433;BME280;41331;45.412;10.992;2023-02-10T13:47:59;102943.34;;;9.77;31.72
23433;BME280;41331;45.412;10.992;2023-02-10T13:53:04;102939.94;;;9.54;32.58
23433;BME280;41331;45.412;10.992;2023-02-10T13:55:43;102944.34;;;9.66;31.67
23433;BME280;41331;45.412;10.992;2023-02-10T14:01:27;102932.16;;;9.36;32.82
23433;BME280;41331;45.412;10.992;2023-02-10T14:03:56;102938.50;;;9.15;32.55
23433;BME280;41331;45.412;10.992;2023-02-10T14:06:37;102934.03;;;9.68;32.46
23433;BME280;41331;45.412;10.992;2023-02-10T14:11:57;102935.97;;;9.35;32.65
23433;BME280;41331;45.412;10.992;2023-02-10T14:14:30;102937.09;;;9.12;33.16
23433;BME280;41331;45.412;10.992;2023-02-10T14:17:20;102925.09;;;9.08;32.78
23433;BME280;41331;45.412;10.992;2023-02-10T14:19:51;102928.31;;;9.00;32.98
23433;BME280;41331;45.412;10.992;2023-02-10T14:22:37;102919.94;;;9.06;33.43
23433;BME280;41331;45.412;10.992;2023-02-10T14:27:36;102917.47;;;9.37;32.64
23433;BME280;41331;45.412;10.992;2023-02-10T14:30:19;102914.88;;;9.15;32.70
23433;BME280;41331;45.412;10.992;2023-02-10T14:32:47;102924.00;;;8.77;32.67
23433;BME280;41331;45.412;10.992;2023-02-10T14:35:24;102923.38;;;8.70;32.81
23433;BME280;41331;45.412;10.992;2023-02-10T14:37:58;102924.34;;;8.86;33.19
23433;BME280;41331;45.412;10.992;2023-02-10T14:40:27;102923.69;;;9.00;33.43
23433;BME280;41331;45.412;10.992;2023-02-10T14:42:58;102917.84;;;8.87;33.40
23433;BME280;41331;45.412;10.992;2023-02-10T14:45:27;102918.97;;;8.91;33.59
23433;BME280;41331;45.412;10.992;2023-02-10T14:47:57;102917.41;;;8.73;32.71
23433;BME280;41331;45.412;10.992;2023-02-10T14:50:31;102919.97;;;8.79;33.46
23433;BME280;41331;45.412;10.992;2023-02-10T14:53:00;102914.97;;;8.71;33.48
23433;BME280;41331;45.412;10.992;2023-02-10T14:55:34;102918.50;;;8.72;33.89